Thedford, NE

4:26 AM CDT on October 19, 2017 (GMT -0500)
Thedford

Weather History for KTIF - November, 2011

Change the Weather History Date:

Monday, November 28, 2011

  Actual Average (KANW) Record (KANW)
Temperature  
Mean Temperature 43 °F -  
Max Temperature 60 °F 40 °F 71 °F (1998)
Min Temperature 26 °F 22 °F 3 °F (2001)
Degree Days  
Heating Degree Days 22    
Moisture  
Dew Point 23 °F    
Average Humidity 51    
Maximum Humidity 80    
Minimum Humidity 23    
Precipitation  
Precipitation 0.00 in - - ()
Sea Level Pressure  
Sea Level Pressure 30.08 in    
Wind  
Wind Speed 8 mph (NW)    
Max Wind Speed 30 mph    
Max Gust Speed 37 mph    
Visibility 10 miles    
Events      
Averages and records for this station are not official NWS values.
T = Trace of Precipitation, MM = Missing Value Source: NWS Daily Summary

Daily Weather History Graph

Daily Weather History Graph

Search for Another Location

Airport or City:

Trip Planner

Search our weather history database for the weather conditions in past years. The results will help you decide how hot, cold, wet, or windy it might be!

Date:

Astronomy

Nov. 28, 2011 Rise Set
Actual Time 7:47 AM CST 5:13 PM CST
Civil Twilight 7:16 AM CST 5:43 PM CST
Nautical Twilight 6:41 AM CST 6:18 PM CST
Astronomical Twilight 6:08 AM CST 6:51 PM CST
Moon 10:57 AM CST (11/28) 9:02 PM CST (11/28)
Length of Visible Light 10h 27m
Length of Day
9h 25m
Waxing Crescent, 16% of the Moon is Illuminated
Nov 28
Waxing Crescent
Dec 2
First Quarter
Dec 10
Full
Dec 17
Last Quarter
Dec 24
New

Hourly Weather History & Observations

Time (CST) Temp. Windchill Dew Point Humidity Pressure Visibility Wind Dir Wind Speed Gust Speed Precip Events Conditions
12:15 AM 28.4 °F - 19.4 °F 69% 30.08 in 10.0 mi Calm Calm - N/A   Clear
12:35 AM 30.2 °F 24.3 °F 19.4 °F 64% 30.07 in 10.0 mi WSW 5.8 mph - N/A   Clear
12:55 AM 32.0 °F 26.4 °F 19.4 °F 60% 30.05 in 10.0 mi SW 5.8 mph - N/A   Clear
1:15 AM 33.8 °F 29.6 °F 21.2 °F 60% 30.04 in 10.0 mi SW 4.6 mph - N/A   Clear
1:35 AM 30.2 °F 23.4 °F 21.2 °F 69% 30.03 in 10.0 mi WSW 6.9 mph - N/A   Clear
1:55 AM 30.2 °F 26.7 °F 21.2 °F 69% 30.04 in 10.0 mi West 3.5 mph - N/A   Clear
2:15 AM 30.2 °F 26.7 °F 21.2 °F 69% 30.03 in 10.0 mi West 3.5 mph - N/A   Clear
2:35 AM 32.0 °F 27.5 °F 23.0 °F 69% 30.03 in 10.0 mi West 4.6 mph - N/A   Clear
2:55 AM 33.8 °F 28.6 °F 23.0 °F 65% 30.02 in 10.0 mi West 5.8 mph - N/A   Clear
3:15 AM 32.0 °F 26.4 °F 21.2 °F 64% 30.01 in 10.0 mi West 5.8 mph - N/A   Clear
3:35 AM 30.2 °F 25.4 °F 21.2 °F 69% 30.01 in 10.0 mi West 4.6 mph - N/A   Clear
3:55 AM 32.0 °F 28.7 °F 21.2 °F 64% 30.00 in 10.0 mi WNW 3.5 mph - N/A   Clear
4:15 AM 32.0 °F 26.4 °F 21.2 °F 64% 30.00 in 10.0 mi WNW 5.8 mph - N/A   Clear
4:35 AM 32.0 °F 24.8 °F 21.2 °F 64% 30.00 in 10.0 mi West 8.1 mph - N/A   Clear
4:55 AM 33.8 °F 27.7 °F 21.2 °F 60% 29.99 in 10.0 mi West 6.9 mph - N/A   Clear
5:15 AM 32.0 °F 26.4 °F 21.2 °F 64% 29.99 in 10.0 mi West 5.8 mph - N/A   Clear
5:35 AM 30.2 °F - 21.2 °F 69% 29.99 in 10.0 mi Calm Calm - N/A   Clear
5:55 AM 30.2 °F 26.7 °F 21.2 °F 69% 29.99 in 10.0 mi WSW 3.5 mph - N/A   Clear
6:35 AM 28.4 °F - 21.2 °F 74% 29.99 in 10.0 mi Calm Calm - N/A   Clear
6:55 AM 26.6 °F 20.0 °F 21.2 °F 80% 29.99 in 10.0 mi West 5.8 mph - N/A   Clear
7:15 AM 30.2 °F 25.4 °F 21.2 °F 69% 30.00 in 10.0 mi West 4.6 mph - N/A   Clear
7:35 AM 30.2 °F 26.7 °F 21.2 °F 69% 30.00 in 10.0 mi WNW 3.5 mph - N/A   Clear
7:55 AM 28.4 °F 22.2 °F 21.2 °F 74% 29.98 in 10.0 mi West 5.8 mph - N/A   Clear
8:15 AM 32.0 °F 27.5 °F 21.2 °F 64% 29.99 in 10.0 mi WNW 4.6 mph - N/A   Clear
8:35 AM 32.0 °F 24.2 °F 23.0 °F 69% 29.99 in 10.0 mi West 9.2 mph - N/A   Clear
8:55 AM 35.6 °F 28.0 °F 23.0 °F 60% 29.99 in 10.0 mi West 10.4 mph - N/A   Clear
9:15 AM 37.4 °F 29.3 °F 23.0 °F 56% 30.00 in 10.0 mi WNW 12.7 mph 16.1 mph N/A   Clear
9:35 AM 42.8 °F 36.2 °F 23.0 °F 46% 30.00 in 10.0 mi WNW 12.7 mph - N/A   Clear
9:55 AM 46.4 °F 41.9 °F 23.0 °F 40% 30.01 in 10.0 mi WNW 9.2 mph - N/A   Clear
10:15 AM 53.6 °F - 23.0 °F 30% 30.02 in 10.0 mi WNW 10.4 mph - N/A   Clear
10:35 AM 57.2 °F - 23.0 °F 27% 30.03 in 10.0 mi NNW 19.6 mph 25.3 mph N/A   Clear
11:15 AM 59.0 °F - 23.0 °F 25% 30.03 in 10.0 mi NNW 18.4 mph 28.8 mph N/A   Clear
11:35 AM 59.0 °F - 21.2 °F 23% 30.05 in 10.0 mi North 24.2 mph 31.1 mph N/A   Clear
11:55 AM 59.0 °F - 21.2 °F 23% 30.05 in 10.0 mi North 17.3 mph 31.1 mph N/A   Clear
12:15 PM 59.0 °F - 21.2 °F 23% 30.06 in 10.0 mi North 21.9 mph 33.4 mph N/A   Clear
12:35 PM 60.8 °F - 23.0 °F 23% 30.07 in 10.0 mi North 23.0 mph 32.2 mph N/A   Clear
1:15 PM 60.8 °F - 24.8 °F 25% 30.08 in 10.0 mi NNE 24.2 mph 34.5 mph N/A   Clear
1:35 PM 60.8 °F - 24.8 °F 25% 30.09 in 10.0 mi North 24.2 mph 36.8 mph N/A   Clear
1:55 PM 60.8 °F - 24.8 °F 25% 30.09 in 10.0 mi North 23.0 mph 34.5 mph N/A   Clear
2:15 PM 60.8 °F - 26.6 °F 27% 30.11 in 10.0 mi North 24.2 mph 34.5 mph N/A   Clear
2:35 PM 60.8 °F - 26.6 °F 27% 30.12 in 10.0 mi North 21.9 mph 36.8 mph N/A   Clear
2:55 PM 59.0 °F - 24.8 °F 27% 30.13 in 10.0 mi North 29.9 mph 35.7 mph N/A   Clear
3:15 PM 59.0 °F - 24.8 °F 27% 30.14 in 10.0 mi North 24.2 mph 33.4 mph N/A   Clear
3:35 PM 57.2 °F - 24.8 °F 29% 30.15 in 10.0 mi North 18.4 mph 32.2 mph N/A   Clear
3:55 PM 55.4 °F - 23.0 °F 29% 30.17 in 10.0 mi North 19.6 mph 31.1 mph N/A   Clear
4:15 PM 55.4 °F - 23.0 °F 29% 30.18 in 10.0 mi North 15.0 mph 25.3 mph N/A   Clear
4:35 PM 53.6 °F - 23.0 °F 30% 30.19 in 10.0 mi North 12.7 mph 27.6 mph N/A   Clear
4:55 PM 51.8 °F - 26.6 °F 38% 30.20 in 10.0 mi North 15.0 mph 20.7 mph N/A   Clear
5:15 PM 51.8 °F - 26.6 °F 38% 30.21 in 10.0 mi North 16.1 mph 23.0 mph N/A   Clear
5:35 PM 48.2 °F - 28.4 °F 46% 30.22 in 10.0 mi North 13.8 mph 20.7 mph N/A   Clear
5:55 PM 46.4 °F 41.5 °F 28.4 °F 50% 30.23 in 10.0 mi North 10.4 mph 18.4 mph N/A   Clear
6:15 PM 46.4 °F 41.5 °F 28.4 °F 50% 30.25 in 10.0 mi North 10.4 mph - N/A   Clear
6:35 PM 44.6 °F 39.7 °F 28.4 °F 53% 30.26 in 10.0 mi North 9.2 mph - N/A   Clear
6:55 PM 44.6 °F 38.4 °F 28.4 °F 53% 30.27 in 10.0 mi North 12.7 mph 18.4 mph N/A   Clear
7:15 PM 42.8 °F 36.6 °F 28.4 °F 57% 30.28 in 10.0 mi North 11.5 mph 16.1 mph N/A   Clear
7:35 PM 41.0 °F 34.3 °F 30.2 °F 65% 30.28 in 10.0 mi North 11.5 mph 17.3 mph N/A   Clear
8:15 PM 37.4 °F 30.3 °F 28.4 °F 70% 30.30 in 10.0 mi North 10.4 mph - N/A   Clear
8:35 PM 37.4 °F 32.1 °F 28.4 °F 70% 30.31 in 10.0 mi North 6.9 mph - N/A   Clear
8:55 PM 35.6 °F 29.9 °F 28.4 °F 75% 30.31 in 10.0 mi North 6.9 mph - N/A   Clear
9:15 PM 35.6 °F 29.9 °F 28.4 °F 75% 30.32 in 10.0 mi North 6.9 mph - N/A   Clear
9:35 PM 33.8 °F 27.7 °F 28.4 °F 81% 30.33 in 10.0 mi North 6.9 mph - N/A   Clear
9:55 PM 35.6 °F 29.2 °F 28.4 °F 75% 30.33 in 10.0 mi North 8.1 mph - N/A   Clear
10:15 PM 33.8 °F 27.0 °F 28.4 °F 81% 30.33 in 10.0 mi North 8.1 mph - N/A   Clear
10:35 PM 33.8 °F 27.7 °F 26.6 °F 75% 30.33 in 10.0 mi North 6.9 mph - N/A   Clear
10:55 PM 32.0 °F 26.4 °F 26.6 °F 80% 30.34 in 10.0 mi North 5.8 mph - N/A   Clear
11:15 PM 32.0 °F 28.7 °F 26.6 °F 80% 30.34 in 10.0 mi NNW 3.5 mph - N/A   Clear
11:35 PM 30.2 °F - 26.6 °F 86% 30.35 in 10.0 mi Calm Calm - N/A   Clear
11:55 PM 28.4 °F - 24.8 °F 86% 30.35 in 10.0 mi Calm Calm - N/A   Clear